Airfield :
LOGIN :

Register | Disclaimer

   EN    FR    IT 

 










Legend :    VFR   Marginal VFR   IFR   Intensive IFR   Very Intensive IFR
Visi :
Ceiling :
>= 8 km
>= 3000ft
5 to 8 km
1000 to 3000 ft
1500m to 5 km
500 to 1000 ft
800 to 1500m
200 to 500 ft
< 800m
< 200 ft
Symbols :   Thunderstorms  Fog  Heavy snow  Heavy precipitations  Wind > 20 kt
SIGMETs :     Misc.  Thunderstorms  Icing  Turbulence  Mountain Waves  Volcanic Ashes






- Airport Elevation : 182 ft
- IATA code : KCO


LTBQ - Cengiz Topel

CURRENT METAR :
  • 051050Z 08005KT 020V140 8000 SCT011 BKN025 BKN080 15/12 Q1012 NOSIG

EXPIRED METARs :
  • 050950Z 04008KT 010V090 7000 FEW012 BKN025 BKN080 15/12 Q1013 RESHRA NOSIG
  • 050850Z 06008KT 020V090 7000 -SHRA SCT008 BKN020 BKN080 12/11 Q1014 NOSIG
  • 050750Z 11004KT 060V170 7000 SCT007 BKN020 BKN080 11/11 Q1014 NOSIG

TAF TAF LTBQ
Valid from the 05 at 09:00 until the 05 at 18:00 UTC


050740Z 0509/0518 05012KT 7000 SCT010 BKN020 BKN080
TEMPO 0509/0512 -SHRA
TEMPO 0512/0515 -SHRA
PROB40
TEMPO 0515/0518 2500 SHRA SCT008 FEW017CB BKN020



MET'MAP, your aeronautical weather chart ! - Copyright ORBIFLY December 2007 - Disclaimer

ORBIFLY MET'MAP TEAM :

Programming & Development : Alexandra Zaïnal
Concept & original design : Baudouin d'Aumeries
Assistance for programming : Marc-Olivier Méhu
Technical & hardware support : Manuel Goepfert

Contact : metmap@orbifly.com




SOURCES & CREDITS :

   NOAA